Jack C. Davis Observatory, Carson City, Nevada Weather observations

Data are for observation ending at time listed.
 Day   Time    Ave.   Ave.  Ave.  Vector   Max.   Stn.    Total    Solar   Ave.  
  of    of     Air    Rel.  Wind   Wind    Wind   Baro.  Precip.   Rad.    Soil  
Year   Day     Temp.  Hum.  Speed  Dir.    Gust   Pres.                    Temp. 
2016   (PST)    F      %     mph   deg.    mph     mb.     in.     W/m2     F   
------------------------------------------------------------------------------
 146   22:10   46.6    81    3.7   278      5.4   848.6    0.00       1    999.0
 146   22:20   47.0    81    4.4   270      7.2   848.6    0.00       1    999.0
 146   22:30   47.2    82    3.0   287      5.3   848.6    0.00       1    999.0
 146   22:40   47.8    80    2.4   300      3.7   848.6    0.00       1    999.0
 146   22:50   47.6    81    4.0   271      6.2   848.5    0.00       1    999.0
 146   23:00   47.5    81    2.5   283      5.8   848.6    0.00       1    999.0
 146   23:10   47.2    82    2.6   287      3.9   848.6    0.00       1    999.0
 146   23:20   47.3    80    3.2   268      4.7   848.6    0.00       1    999.0
 146   23:30   47.1    81    3.5   270      4.3   848.7    0.00       1    999.0
 146   23:40   47.4    80    2.7   292      3.4   848.6    0.00       1    999.0
 146   23:50   47.0    81    2.8   302      4.7   848.7    0.00       1    999.0
 147    0:00   46.8    81    2.4   299      3.5   848.7    0.00       1    999.0
 147    0:10   46.5    80    2.4   290      4.1   848.6    0.00       1    999.0
 147    0:20   46.6    78    3.3   286      4.2   848.5    0.00       1    999.0
 147    0:30   45.6    77    4.5   264      6.1   848.5    0.00       1    999.0
 147    0:40   44.4    76    5.4   262      7.0   848.5    0.00       1    999.0
 147    0:50   44.0    77    5.7   268      7.7   848.4    0.00       1    999.0
 147    1:00   43.8    77    6.1   267      7.4   848.4    0.00       1    999.0
 147    1:10   43.5    77    5.6   276      7.3   848.3    0.00       1    999.0
 147    1:20   43.3    76    5.3   269      7.2   848.4    0.00       1    999.0
 147    1:30   42.8    76    5.7   267      6.6   848.4    0.00       1    999.0
 147    1:40   42.9    77    5.4   271      6.6   848.4    0.00       1    999.0
 147    1:50   42.7    76    5.6   268      6.9   848.4    0.00       1    999.0
 147    2:00   43.6    74    6.2   270      7.8   848.4    0.00       1    999.0
 147    2:10   43.3    76    5.6   279      7.9   848.5    0.00       1    999.0
 147    2:20   42.6    76    5.7   274      7.9   848.4    0.00       1    999.0
 147    2:30   42.4    74    6.6   266      8.7   848.4    0.00       1    999.0
 147    2:40   42.3    74    5.2   279      8.0   848.3    0.00       1    999.0
 147    2:50   42.7    76    2.7   300      4.5   848.3    0.00       1    999.0
 147    3:00   42.8    77    2.7   297      4.3   848.3    0.00       1    999.0
 147    3:10   42.7    76    4.7   283      6.7   848.2    0.00       1    999.0
 147    3:20   43.6    77    4.2   310      6.1   848.2    0.00       1    999.0
 147    3:30   44.4    78    6.7   317      9.6   848.2    0.00       1    999.0
 147    3:40   44.1    75    4.2   294      8.2   848.1    0.00       1    999.0
 147    3:50   43.4    76    3.9   289      5.7   848.1    0.00       0    999.0
 147    4:00   43.0    75    3.1   306      5.2   848.1    0.00       0    999.0
 147    4:10   42.5    76    3.2   304      6.6   848.1    0.00       1    999.0
 147    4:20   42.6    81    2.9   319      4.6   848.2    0.00       1    999.0
 147    4:30   43.8    78    2.3   304      4.5   848.3    0.00       1    999.0
 147    4:40   43.9    77    2.0   339      3.5   848.3    0.00       3    999.0
 147    4:50   43.3    80    2.3   298      4.2   848.3    0.00       8    999.0
 147    5:00   44.0    74    1.8   294      4.4   848.4    0.00      21    999.0
 147    5:10   44.2    73    2.6   280      4.7   848.4    0.00      24    999.0
 147    5:20   43.7    74    4.1   292      5.1   848.4    0.00      33    999.0
 147    5:30   43.8    74    1.9   296      4.1   848.4    0.00      34    999.0
 147    5:40   44.0    75    2.9   318      4.5   848.5    0.00      58    999.0
 147    5:50   44.6    73    1.0   262      3.0   848.6    0.00      47    999.0
 147    6:00   44.5    74    1.2   304      2.6   848.6    0.00      39    999.0
 147    6:10   44.2    75    1.3   330      3.1   848.6    0.00      49    999.0
 147    6:20   44.2    77    0.1   290      0.9   848.7    0.00     113    999.0
 147    6:30   47.4    71    1.0    77      3.3   848.8    0.00     303    999.0
 147    6:40   50.2    66    2.0    57      5.1   848.9    0.00     341    999.0
 147    6:50   49.1    68    2.5    77      4.2   848.8    0.00     377    999.0
 147    7:00   51.5    63    1.0   113      3.2   848.8    0.00     402    999.0
 147    7:10   53.5    58    1.6   101      3.6   848.8    0.00     430    999.0
 147    7:20   51.7    62    3.1    91      5.4   848.8    0.00     478    999.0
 147    7:30   53.2    57    2.2    88      5.6   848.9    0.00     509    999.0
 147    7:40   54.9    55    1.8   111      5.0   848.8    0.00     510    999.0
 147    7:50   53.6    60    4.0    81      6.7   848.8    0.00     574    999.0
 147    8:00   55.1    57    2.2    94      5.8   848.8    0.00     618    999.0
 147    8:10   55.7    55    3.6   117      6.8   848.8    0.00     541    999.0
 147    8:20   55.4    57    4.0    95      6.1   848.8    0.00     478    999.0
 147    8:30   56.7    54    3.5    92      6.6   848.9    0.00     845    999.0
 147    8:40   57.7    50    3.1    77      8.4   848.9    0.00     724    999.0
 147    8:50   58.3    50    3.3    89      7.7   848.8    0.00     802    999.0
 147    9:00   58.8    49    4.4    96      8.0   848.8    0.00     857    999.0
 147    9:10   58.7    47    4.5   110      8.6   848.7    0.00     763    999.0
 147    9:20   59.4    45    4.8    96     10.0   848.7    0.00     852    999.0
 147    9:30   60.0    41    4.9    90     14.3   848.7    0.00     883    999.0
 147    9:40   61.4    38    4.3   108      9.8   848.7    0.00     914    999.0
 147    9:50   61.3    34    3.2    62     11.2   848.7    0.00     804    999.0
 147   10:00   62.1    34    2.4    65      6.1   848.7    0.00     603    999.0
 147   10:10   61.5    35    3.2    39      8.0   848.6    0.00     715    999.0
 147   10:20   62.8    32    3.2    61      7.4   848.6    0.00     791    999.0
 147   10:30   62.4    30    4.0    49      8.1   848.5    0.00     823    999.0
 147   10:40   64.5    28    2.8   338      7.8   848.5    0.00    1186    999.0
 147   10:50   65.6    26    5.1    44      9.9   848.5    0.00    1155    999.0
 147   11:00   63.6    28    4.7    46     11.7   848.4    0.00     983    999.0
 147   11:10   64.3    27    4.1    69      9.9   848.4    0.00    1184    999.0
 147   11:20   65.2    27    2.8    42      8.8   848.4    0.00     782    999.0
 147   11:30   65.0    26    2.8    21      8.3   848.4    0.00     979    999.0
 147   11:40   67.2    26    2.2    13      6.6   848.3    0.00    1241    999.0
 147   11:50   65.5    26    5.9    76     13.7   848.2    0.00    1124    999.0
 147   12:00   64.6    28    2.8   240      7.2   848.2    0.00     461    999.0
 147   12:10   64.6    29    2.5   339      6.1   848.3    0.00     339    999.0
 147   12:20   63.4    30    4.5   309      8.3   848.2    0.00     510    999.0
 147   12:30   65.6    29    2.8   310      7.7   848.2    0.00     725    999.0
 147   12:40   65.3    29    4.2   300      7.7   848.1    0.00     907    999.0
 147   12:50   65.5    27    1.7    10      4.5   848.0    0.00     624    999.0
 147   13:00   63.9    29    2.9    18      5.6   847.9    0.00     382    999.0
 147   13:10   65.3    28    2.4   314      8.6   847.8    0.00     478    999.0
 147   13:20   64.9    28    2.3   338      6.5   847.7    0.00     404    999.0
 147   13:30   66.8    27    3.6   177     10.7   847.6    0.00     674    999.0
 147   13:40   66.4    27    5.1   176      8.4   847.5    0.00     416    999.0
 147   13:50   66.5    26    4.7   152      8.6   847.4    0.00     768    999.0
 147   14:00   65.5    27    4.5    76      9.5   847.3    0.00     673    999.0
 147   14:10   64.6    27    2.7    72      5.5   847.2    0.00     260    999.0
 147   14:20   64.8    28    1.8    18      7.4   847.2    0.00     351    999.0
 147   14:30   66.4    26    1.3   131      3.7   847.0    0.00     453    999.0
 147   14:40   66.5    26    2.9   134      5.3   846.9    0.00     417    999.0
 147   14:50   66.2    26    3.7   313     11.1   846.9    0.00     389    999.0
 147   15:00   68.1    24    3.4    27      8.0   846.8    0.00     825    999.0
 147   15:10   68.7    24    2.7    69      7.2   846.7    0.00     758    999.0
 147   15:20   69.3    24    5.3   273     16.5   846.6    0.00     777    999.0
 147   15:30   69.0    24    4.6   304     12.4   846.6    0.00     713    999.0
 147   15:40   69.0    24    5.4   328     11.0   846.6    0.00     602    999.0
 147   15:50   67.2    26    5.5   318     10.8   846.5    0.00     342    999.0
 147   16:00   67.8    26    3.2   307      6.1   846.4    0.00     501    999.0
 147   16:10   69.3    24    3.6   328     10.9   846.4    0.00     481    999.0
 147   16:20   68.8    25    4.7   312     11.9   846.3    0.00     543    999.0
 147   16:30   69.2    24    4.7   307     10.9   846.3    0.00     515    999.0
 147   16:40   68.2    24    5.7   299     10.5   846.2    0.00     487    999.0
 147   16:50   68.9    24    4.5   280      9.1   846.1    0.00     442    999.0
 147   17:00   67.6    27    8.3   267     15.2   846.0    0.00     412    999.0
 147   17:10   66.4    28    9.9   256     14.4   845.9    0.00     367    999.0
 147   17:20   65.3    33   12.1   256     16.9   846.0    0.00     343    999.0
 147   17:30   64.4    36   11.7   262     18.0   846.0    0.00     290    999.0
 147   17:40   63.8    37   11.0   268     16.7   846.0    0.00     249    999.0
 147   17:50   63.3    38   10.8   265     18.9   846.0    0.00     186    999.0
 147   18:00   63.3    39    9.0   275     14.4   846.0    0.00     183    999.0
 147   18:10   62.3    41   10.5   260     15.2   846.0    0.00     151    999.0
 147   18:20   61.0    45   12.5   264     20.7   846.0    0.00      52    999.0
 147   18:30   60.4    46   10.0   266     16.9   846.1    0.00      33    999.0
 147   18:40   60.2    46    9.2   267     14.5   846.1    0.00      27    999.0
 147   18:50   59.9    46    7.8   272     13.7   846.1    0.00      21    999.0
 147   19:00   59.9    46   10.1   275     15.9   846.2    0.00      15    999.0
 147   19:10   59.8    46    9.2   282     15.6   846.2    0.00       9    999.0
 147   19:20   59.1    48    8.3   276     12.0   846.2    0.00       3    999.0
 147   19:30   58.8    49    9.6   278     15.3   846.2    0.00       1    999.0
 147   19:40   58.7    48    9.0   275     14.3   846.2    0.00       1    999.0
 147   19:50   58.1    50    9.0   266     14.0   846.2    0.00       1    999.0
 147   20:00   57.9    50    9.2   267     14.0   846.2    0.00       1    999.0
 147   20:10   57.5    51    7.7   260     14.8   846.3    0.00       1    999.0
 147   20:20   57.4    52    9.6   263     16.4   846.3    0.00       1    999.0
 147   20:30   57.5    52   11.8   274     21.0   846.4    0.00       1    999.0
 147   20:40   57.6    52   12.7   276     21.8   846.5    0.00       1    999.0
 147   20:50   57.8    52   12.5   276     23.5   846.6    0.00       1    999.0
 147   21:00   57.9    51   12.9   282     20.3   846.6    0.00       1    999.0
 147   21:10   58.0    50   10.4   275     18.5   846.7    0.00       1    999.0
 147   21:20   57.5    50    7.7   260     11.8   846.8    0.00       1    999.0
 147   21:30   57.2    50    2.9   222      6.1   846.9    0.00       1    999.0
 147   21:40   56.9    51    4.5   224      9.3   847.0    0.00       1    999.0
 147   21:50   57.0    51    6.9   231     14.7   846.9    0.00       1    999.0
 147   22:00   56.6    52    5.8   236     11.1   846.9    0.00       1    999.0

Return to Yerington, Nevada graphs page.


Western Regional Climate Center,wrcc@dri.edu